createdAt,value
2019-04-28T00:02:08.524Z,2.75
2019-04-28T00:06:11.055Z,2.87
2019-04-28T00:10:13.237Z,2.85
2019-04-28T00:14:14.845Z,2.92
2019-04-28T00:18:16.537Z,2.90
2019-04-28T00:22:18.302Z,3.10
2019-04-28T00:26:21.121Z,3.22
2019-04-28T00:30:23.467Z,2.50
2019-04-28T00:34:25.039Z,4.83
2019-04-28T00:38:26.602Z,3.40
2019-04-28T00:42:28.418Z,2.83
2019-04-28T00:46:31.126Z,3.33
2019-04-28T00:50:32.797Z,4.40
2019-04-28T00:54:34.355Z,2.65
2019-04-28T00:58:35.925Z,2.75
2019-04-28T01:02:37.618Z,2.92
2019-04-28T01:06:39.224Z,3.25
2019-04-28T01:10:41.047Z,2.10
2019-04-28T01:14:43.488Z,3.02
2019-04-28T01:18:45.156Z,2.60
2019-04-28T01:22:46.779Z,2.55
2019-04-28T01:26:50.735Z,3.75
2019-04-28T01:30:52.146Z,3.95
2019-04-28T01:34:53.702Z,3.65
2019-04-28T01:38:55.395Z,2.58
2019-04-28T01:42:56.968Z,2.98
2019-04-28T01:47:00.944Z,5.05
2019-04-28T01:51:02.202Z,5.10
2019-04-28T01:55:04.161Z,3.87
2019-04-28T01:59:05.696Z,2.52
2019-04-28T02:03:07.286Z,2.20
2019-04-28T02:07:10.881Z,1.82
2019-04-28T02:11:12.324Z,1.98
2019-04-28T02:15:13.929Z,1.75
2019-04-28T02:19:15.885Z,2.10
2019-04-28T02:23:17.675Z,3.27
2019-04-28T02:27:20.381Z,1.70
2019-04-28T02:31:24.406Z,2.10
2019-04-28T02:35:31.479Z,2.30
2019-04-28T02:39:32.007Z,1.85
2019-04-28T02:43:33.733Z,1.92
2019-04-28T02:47:35.282Z,1.42
2019-04-28T02:51:36.835Z,2.00
2019-04-28T02:55:41.060Z,1.90
2019-04-28T02:59:44.669Z,1.20
2019-04-28T03:03:45.397Z,1.75
2019-04-28T03:07:47.059Z,2.20
2019-04-28T03:11:51.013Z,2.65
2019-04-28T03:15:52.073Z,2.00
2019-04-28T03:19:53.828Z,1.75
2019-04-28T03:23:55.451Z,2.10
2019-04-28T03:27:57.041Z,1.55
2019-04-28T03:32:20.672Z,1.42
2019-04-28T03:36:07.131Z,2.62
2019-04-28T03:40:05.703Z,2.20
2019-04-28T03:44:07.334Z,1.87
2019-04-28T03:48:11.340Z,1.60
2019-04-28T03:52:12.515Z,1.45
2019-04-28T03:56:14.211Z,1.52
2019-04-28T04:00:15.867Z,2.27
2019-04-28T04:04:18.071Z,2.35
2019-04-28T04:08:20.833Z,1.50
2019-04-28T04:12:23.462Z,1.10
2019-04-28T04:16:25.165Z,1.70
2019-04-28T04:20:26.833Z,3.50
2019-04-28T04:24:30.632Z,1.90
2019-04-28T04:28:31.971Z,1.70
2019-04-28T04:32:34.011Z,2.25
2019-04-28T04:36:35.801Z,1.72
2019-04-28T04:40:37.350Z,1.37
2019-04-28T04:44:41.507Z,2.35
2019-04-28T04:48:42.918Z,1.90
2019-04-28T04:52:44.505Z,1.30
2019-04-28T04:56:46.231Z,1.47
2019-04-28T05:00:47.843Z,1.98
2019-04-28T05:04:50.622Z,1.40
2019-04-28T05:08:52.254Z,1.75
2019-04-28T05:12:53.821Z,2.60
2019-04-28T05:16:55.492Z,1.50
2019-04-28T05:20:57.068Z,2.35
2019-04-28T05:25:00.093Z,4.40
2019-04-28T05:29:01.810Z,2.62
2019-04-28T05:33:03.368Z,2.33
2019-04-28T05:37:05.019Z,2.25
2019-04-28T05:41:06.592Z,2.10
2019-04-28T05:45:10.268Z,1.95
2019-04-28T05:49:11.824Z,1.85
2019-04-28T05:53:13.504Z,2.10
2019-04-28T05:57:15.196Z,1.87
2019-04-28T06:01:16.952Z,1.95
2019-04-28T06:05:20.002Z,2.15
2019-04-28T06:09:22.173Z,1.90
2019-04-28T06:13:23.768Z,1.50
2019-04-28T06:17:25.592Z,1.82
2019-04-28T06:21:27.196Z,2.12
2019-04-28T06:25:28.789Z,2.45
2019-04-28T06:29:30.413Z,2.05
2019-04-28T06:33:32.358Z,1.75
2019-04-28T06:37:33.989Z,1.98
2019-04-28T06:41:35.908Z,6.67
2019-04-28T06:45:37.547Z,2.27
2019-04-28T06:49:39.192Z,4.55
2019-04-28T06:53:41.061Z,2.98
2019-04-28T06:57:42.769Z,2.83
2019-04-28T07:01:44.417Z,2.30
2019-04-28T07:05:46.058Z,2.92
2019-04-28T07:09:47.710Z,2.00
2019-04-28T07:13:49.395Z,2.30
2019-04-28T07:17:51.366Z,1.90
2019-04-28T07:21:53.431Z,1.77
2019-04-28T07:25:55.160Z,2.72
2019-04-28T07:29:56.809Z,3.05
2019-04-28T07:33:58.785Z,2.62
2019-04-28T07:38:00.780Z,2.20
2019-04-28T07:42:03.240Z,2.10
2019-04-28T07:46:04.880Z,2.50
2019-04-28T07:50:06.962Z,2.65
2019-04-28T07:54:08.744Z,2.17
2019-04-28T07:58:10.378Z,2.52
2019-04-28T08:02:12.755Z,1.52
2019-04-28T08:06:14.564Z,2.25
2019-04-28T08:10:16.356Z,2.77
2019-04-28T08:14:19.650Z,2.08
2019-04-28T08:18:21.418Z,2.05
2019-04-28T08:22:23.014Z,1.98
2019-04-28T08:26:24.628Z,1.07
2019-04-28T08:30:27.285Z,2.10
2019-04-28T08:34:29.205Z,1.65
2019-04-28T08:38:30.841Z,1.80
2019-04-28T08:42:32.474Z,2.15
2019-04-28T08:46:34.308Z,1.40
2019-04-28T08:50:35.969Z,1.50
2019-04-28T08:54:37.621Z,1.57
2019-04-28T08:58:39.281Z,1.75
2019-04-28T09:02:41.292Z,2.37
2019-04-28T09:06:42.891Z,2.15
2019-04-28T09:10:45.164Z,1.77
2019-04-28T09:14:47.004Z,1.32
2019-04-28T09:18:48.882Z,1.57
2019-04-28T09:22:50.497Z,1.07
2019-04-28T09:26:52.261Z,1.12
2019-04-28T09:30:53.960Z,1.75
2019-04-28T09:34:55.662Z,1.55
2019-04-28T09:38:57.347Z,2.45
2019-04-28T09:42:59.955Z,1.25
2019-04-28T09:47:01.542Z,1.47
2019-04-28T09:51:03.174Z,1.87
2019-04-28T09:55:04.818Z,2.50
2019-04-28T09:59:07.417Z,2.15
2019-04-28T10:03:09.812Z,2.15
2019-04-28T10:07:11.993Z,2.17
2019-04-28T10:11:13.651Z,1.82
2019-04-28T10:15:15.502Z,1.75
2019-04-28T10:19:18.112Z,1.92
2019-04-28T10:23:20.748Z,1.35
2019-04-28T10:27:22.403Z,1.42
2019-04-28T10:31:25.398Z,0.90
2019-04-28T10:35:28.010Z,1.05
2019-04-28T10:39:30.352Z,1.05
2019-04-28T10:43:32.576Z,1.52
2019-04-28T10:47:34.705Z,1.42
2019-04-28T10:51:37.276Z,1.00
2019-04-28T10:55:40.077Z,1.47
2019-04-28T10:59:42.447Z,1.92
2019-04-28T11:03:44.787Z,0.80
2019-04-28T11:07:46.392Z,1.30
2019-04-28T11:11:48.201Z,0.85
2019-04-28T11:15:50.608Z,1.12
2019-04-28T11:19:52.373Z,0.95
2019-04-28T11:23:55.107Z,1.40
2019-04-28T11:27:58.633Z,1.95
2019-04-28T11:32:01.112Z,1.20
2019-04-28T11:36:02.919Z,1.02
2019-04-28T11:40:06.386Z,0.75
2019-04-28T11:44:10.697Z,0.45
2019-04-28T11:48:12.529Z,0.40
2019-04-28T11:52:14.535Z,0.53
2019-04-28T11:56:16.398Z,0.20
2019-04-28T12:00:18.562Z,0.30
2019-04-28T12:04:20.375Z,0.30
2019-04-28T12:08:24.188Z,0.28
2019-04-28T12:12:26.526Z,0.35
2019-04-28T12:16:28.612Z,0.40
2019-04-28T12:20:31.779Z,0.40
2019-04-28T12:24:34.173Z,0.13
2019-04-28T12:28:35.838Z,0.40
2019-04-28T12:32:37.939Z,0.75
2019-04-28T12:36:39.596Z,0.50
2019-04-28T12:40:41.194Z,0.50
2019-04-28T12:44:43.358Z,0.82
2019-04-28T12:48:44.963Z,0.80
2019-04-28T12:52:46.749Z,1.15
2019-04-28T12:56:48.531Z,0.82
2019-04-28T13:00:50.350Z,0.80
2019-04-28T13:04:52.438Z,0.57
2019-04-28T13:08:54.455Z,0.53
2019-04-28T13:12:56.740Z,0.82
2019-04-28T13:16:58.498Z,0.75
2019-04-28T13:21:00.478Z,1.07
2019-04-28T13:25:02.500Z,0.55
2019-04-28T13:32:03.955Z,0.40
2019-04-28T13:36:14.477Z,0.33
2019-04-28T13:40:11.662Z,0.70
2019-04-28T13:44:14.014Z,0.50
2019-04-28T13:48:15.813Z,0.20
2019-04-28T13:52:18.147Z,0.60
2019-04-28T13:56:20.656Z,0.53
2019-04-28T14:00:22.795Z,0.35
2019-04-28T14:04:24.668Z,0.35
2019-04-28T14:08:27.355Z,0.30
2019-04-28T14:12:29.123Z,0.50
2019-04-28T14:16:32.748Z,0.40
2019-04-28T14:20:35.239Z,0.30
2019-04-28T14:24:37.532Z,0.68
2019-04-28T14:28:39.318Z,0.70
2019-04-28T14:32:41.031Z,0.80
2019-04-28T14:36:43.001Z,0.60
2019-04-28T14:40:44.664Z,0.57
2019-04-28T14:44:46.405Z,0.25
2019-04-28T14:48:49.465Z,0.25
2019-04-28T14:52:51.365Z,1.00
2019-04-28T14:56:53.650Z,0.40
2019-04-28T15:00:55.572Z,0.75
2019-04-28T15:04:57.792Z,0.50
2019-04-28T15:09:00.553Z,0.30
2019-04-28T15:13:02.616Z,0.53
2019-04-28T15:17:04.432Z,0.30
2019-04-28T15:21:06.149Z,0.40
2019-04-28T15:25:08.433Z,0.40
2019-04-28T15:29:10.082Z,0.40
2019-04-28T15:33:11.927Z,0.50
2019-04-28T15:37:15.508Z,0.40
2019-04-28T15:41:21.847Z,0.40
2019-04-28T15:45:21.090Z,0.50
2019-04-28T15:49:23.008Z,0.60
2019-04-28T15:53:24.744Z,0.68
2019-04-28T15:57:26.935Z,0.28
2019-04-28T16:01:29.642Z,0.30
2019-04-28T16:05:31.366Z,0.42
2019-04-28T16:09:33.720Z,0.40
2019-04-28T16:13:35.970Z,0.33
2019-04-28T16:17:37.706Z,0.70
2019-04-28T16:21:40.380Z,0.80
2019-04-28T16:25:42.818Z,0.70
2019-04-28T16:29:44.715Z,0.50
2019-04-28T16:33:46.632Z,0.30
2019-04-28T16:37:49.331Z,0.42
2019-04-28T16:41:51.083Z,0.50
2019-04-28T16:45:52.834Z,0.30
2019-04-28T16:49:54.610Z,0.40
2019-04-28T16:53:56.667Z,0.60
2019-04-28T16:57:59.631Z,0.60
2019-04-28T17:02:01.620Z,0.72
2019-04-28T17:06:03.738Z,0.50
2019-04-28T17:10:06.505Z,0.50
2019-04-28T17:14:08.297Z,1.15
2019-04-28T17:18:10.534Z,0.60
2019-04-28T17:22:12.904Z,0.65
2019-04-28T17:26:14.720Z,0.65
2019-04-28T17:30:16.643Z,0.70
2019-04-28T17:34:19.947Z,0.23
2019-04-28T17:38:21.632Z,0.37
2019-04-28T17:42:23.529Z,0.20
2019-04-28T17:46:25.295Z,0.25
2019-04-28T17:50:27.071Z,0.20
2019-04-28T17:54:28.894Z,0.28
2019-04-28T17:58:30.958Z,0.40
2019-04-28T18:02:32.659Z,0.33
2019-04-28T18:06:34.680Z,0.47
2019-04-28T18:10:37.993Z,0.40
2019-04-28T18:14:40.807Z,1.00
2019-04-28T18:18:42.977Z,0.75
2019-04-28T18:22:45.092Z,0.47
2019-04-28T18:26:47.537Z,0.40
2019-04-28T18:30:49.659Z,0.70
2019-04-28T18:34:52.574Z,0.45
2019-04-28T18:38:54.303Z,0.50
2019-04-28T18:42:58.110Z,0.70
2019-04-28T18:47:01.644Z,0.57
2019-04-28T18:51:04.222Z,0.78
2019-04-28T18:55:08.124Z,0.60
2019-04-28T18:59:10.727Z,0.78
2019-04-28T19:03:12.801Z,0.50
2019-04-28T19:07:15.316Z,0.70
2019-04-28T19:11:18.325Z,1.30
2019-04-28T19:15:22.783Z,1.30
2019-04-28T19:19:25.408Z,1.40
2019-04-28T19:23:27.927Z,2.00
2019-04-28T19:27:32.765Z,1.55
2019-04-28T19:31:35.216Z,1.80
2019-04-28T19:35:39.170Z,1.50
2019-04-28T19:39:42.041Z,1.67
2019-04-28T19:43:44.489Z,1.42
2019-04-28T19:47:46.718Z,1.70
2019-04-28T19:51:48.635Z,1.60
2019-04-28T19:55:50.616Z,1.60
2019-04-28T19:59:53.124Z,2.10
2019-04-28T20:03:56.821Z,1.40
2019-04-28T20:07:59.435Z,1.52
2019-04-28T20:12:01.910Z,1.72
2019-04-28T20:16:04.756Z,1.65
2019-04-28T20:20:07.064Z,1.65
2019-04-28T20:24:09.358Z,1.95
2019-04-28T20:28:11.642Z,1.70
2019-04-28T20:32:14.005Z,1.30
2019-04-28T20:36:16.476Z,1.37
2019-04-28T20:40:19.461Z,2.00
2019-04-28T20:44:22.382Z,1.50
2019-04-28T20:48:25.516Z,1.10
2019-04-28T20:52:28.087Z,1.27
2019-04-28T20:56:32.106Z,1.00
2019-04-28T21:00:34.343Z,0.90
2019-04-28T21:04:37.118Z,1.37
2019-04-28T21:08:39.445Z,2.25
2019-04-28T21:12:41.465Z,1.90
2019-04-28T21:16:43.623Z,1.60
2019-04-28T21:20:46.343Z,1.40
2019-04-28T21:24:48.982Z,1.20
2019-04-28T21:28:51.832Z,1.75
2019-04-28T21:32:54.281Z,1.47
2019-04-28T21:36:57.060Z,1.37
2019-04-28T21:40:59.037Z,1.80
2019-04-28T21:45:01.013Z,1.70
2019-04-28T21:49:04.298Z,1.42
2019-04-28T21:53:06.574Z,1.42
2019-04-28T21:57:09.252Z,1.70
2019-04-28T22:01:15.472Z,1.30
2019-04-28T22:05:29.900Z,0.90
2019-04-28T22:09:23.039Z,1.30
2019-04-28T22:13:25.372Z,1.37
2019-04-28T22:17:28.341Z,1.15
2019-04-28T22:21:30.287Z,0.80
2019-04-28T22:25:32.485Z,1.10
2019-04-28T22:29:35.020Z,1.00
2019-04-28T22:33:36.879Z,1.55
2019-04-28T22:37:40.152Z,1.37
2019-04-28T22:41:42.341Z,1.60
2019-04-28T22:45:44.469Z,1.17
2019-04-28T22:49:46.272Z,1.42
2019-04-28T22:53:49.016Z,1.45
2019-04-28T22:57:50.797Z,1.67
2019-04-28T23:01:52.790Z,1.72
2019-04-28T23:05:55.658Z,1.37
2019-04-28T23:09:58.282Z,1.30
2019-04-28T23:14:01.617Z,1.47
2019-04-28T23:18:04.378Z,1.37
2019-04-28T23:22:06.230Z,1.10
2019-04-28T23:26:08.151Z,1.45
2019-04-28T23:30:09.915Z,1.55
2019-04-28T23:34:11.597Z,1.75
2019-04-28T23:38:13.587Z,1.57
2019-04-28T23:42:15.343Z,1.72
2019-04-28T23:46:17.020Z,2.05
2019-04-28T23:50:18.787Z,1.50
2019-04-28T23:54:21.035Z,1.80
2019-04-28T23:58:22.705Z,1.98
